sensor_id;sensor_type;location;lat;lon;timestamp;P1;durP1;ratioP1;P2;durP2;ratioP2
9807;SDS011;4943;52.550;13.462;2023-07-31T00:00:01;333.77;;;254.87;;
9807;SDS011;4943;52.550;13.462;2023-07-31T00:02:29;342.73;;;273.73;;
9807;SDS011;4943;52.550;13.462;2023-07-31T00:04:57;342.37;;;273.57;;
9807;SDS011;4943;52.550;13.462;2023-07-31T00:07:25;335.53;;;261.27;;
9807;SDS011;4943;52.550;13.462;2023-07-31T00:09:54;333.10;;;255.00;;
9807;SDS011;4943;52.550;13.462;2023-07-31T00:12:23;336.27;;;248.53;;
9807;SDS011;4943;52.550;13.462;2023-07-31T00:14:52;335.10;;;259.33;;
9807;SDS011;4943;52.550;13.462;2023-07-31T00:17:20;330.13;;;246.57;;
9807;SDS011;4943;52.550;13.462;2023-07-31T00:19:48;332.47;;;249.10;;
9807;SDS011;4943;52.550;13.462;2023-07-31T00:22:17;335.03;;;249.73;;
9807;SDS011;4943;52.550;13.462;2023-07-31T00:24:45;334.43;;;246.17;;
9807;SDS011;4943;52.550;13.462;2023-07-31T00:27:13;339.63;;;263.13;;
9807;SDS011;4943;52.550;13.462;2023-07-31T00:29:41;339.10;;;255.30;;
9807;SDS011;4943;52.550;13.462;2023-07-31T00:32:11;333.33;;;248.00;;
9807;SDS011;4943;52.550;13.462;2023-07-31T00:34:39;333.03;;;248.70;;
9807;SDS011;4943;52.550;13.462;2023-07-31T00:37:07;332.23;;;247.27;;
9807;SDS011;4943;52.550;13.462;2023-07-31T00:39:35;333.23;;;244.80;;
9807;SDS011;4943;52.550;13.462;2023-07-31T00:42:03;336.60;;;260.47;;
9807;SDS011;4943;52.550;13.462;2023-07-31T00:44:32;337.40;;;253.60;;
9807;SDS011;4943;52.550;13.462;2023-07-31T00:47:00;336.43;;;256.50;;
9807;SDS011;4943;52.550;13.462;2023-07-31T00:49:29;333.97;;;252.13;;
9807;SDS011;4943;52.550;13.462;2023-07-31T00:51:58;338.97;;;262.80;;
9807;SDS011;4943;52.550;13.462;2023-07-31T00:54:27;334.97;;;248.73;;
9807;SDS011;4943;52.550;13.462;2023-07-31T00:56:55;329.80;;;238.50;;
9807;SDS011;4943;52.550;13.462;2023-07-31T00:59:24;334.00;;;241.73;;
9807;SDS011;4943;52.550;13.462;2023-07-31T01:01:52;332.70;;;249.13;;
9807;SDS011;4943;52.550;13.462;2023-07-31T01:04:21;332.70;;;245.17;;
9807;SDS011;4943;52.550;13.462;2023-07-31T01:06:53;338.27;;;264.80;;
9807;SDS011;4943;52.550;13.462;2023-07-31T01:09:29;333.53;;;248.37;;
9807;SDS011;4943;52.550;13.462;2023-07-31T01:12:04;336.17;;;253.70;;
9807;SDS011;4943;52.550;13.462;2023-07-31T01:14:34;333.10;;;248.87;;
9807;SDS011;4943;52.550;13.462;2023-07-31T01:17:02;335.87;;;250.03;;
9807;SDS011;4943;52.550;13.462;2023-07-31T01:19:31;344.17;;;279.63;;
9807;SDS011;4943;52.550;13.462;2023-07-31T01:22:15;341.07;;;268.40;;
9807;SDS011;4943;52.550;13.462;2023-07-31T01:25:00;341.57;;;267.37;;
9807;SDS011;4943;52.550;13.462;2023-07-31T01:27:44;333.73;;;237.67;;
9807;SDS011;4943;52.550;13.462;2023-07-31T01:30:20;341.93;;;262.00;;
9807;SDS011;4943;52.550;13.462;2023-07-31T01:32:52;341.53;;;267.40;;
9807;SDS011;4943;52.550;13.462;2023-07-31T01:35:22;328.30;;;241.50;;
9807;SDS011;4943;52.550;13.462;2023-07-31T01:37:52;324.97;;;228.93;;
9807;SDS011;4943;52.550;13.462;2023-07-31T01:40:20;328.40;;;235.30;;
9807;SDS011;4943;52.550;13.462;2023-07-31T01:42:50;325.37;;;234.03;;
9807;SDS011;4943;52.550;13.462;2023-07-31T01:45:18;327.30;;;241.47;;
9807;SDS011;4943;52.550;13.462;2023-07-31T01:47:47;332.97;;;239.70;;
9807;SDS011;4943;52.550;13.462;2023-07-31T01:50:16;324.57;;;230.73;;
9807;SDS011;4943;52.550;13.462;2023-07-31T01:52:44;329.83;;;244.20;;
9807;SDS011;4943;52.550;13.462;2023-07-31T01:55:12;330.83;;;248.73;;
9807;SDS011;4943;52.550;13.462;2023-07-31T01:57:40;330.67;;;238.90;;
9807;SDS011;4943;52.550;13.462;2023-07-31T02:00:10;325.43;;;234.97;;
9807;SDS011;4943;52.550;13.462;2023-07-31T02:02:38;328.07;;;243.30;;
9807;SDS011;4943;52.550;13.462;2023-07-31T02:05:06;319.40;;;218.40;;
9807;SDS011;4943;52.550;13.462;2023-07-31T02:07:35;324.27;;;233.13;;
9807;SDS011;4943;52.550;13.462;2023-07-31T02:10:03;326.40;;;234.93;;
9807;SDS011;4943;52.550;13.462;2023-07-31T02:12:32;322.87;;;228.93;;
9807;SDS011;4943;52.550;13.462;2023-07-31T02:15:00;329.57;;;241.07;;
9807;SDS011;4943;52.550;13.462;2023-07-31T02:17:29;331.70;;;243.07;;
9807;SDS011;4943;52.550;13.462;2023-07-31T02:19:57;325.23;;;233.90;;
9807;SDS011;4943;52.550;13.462;2023-07-31T02:22:25;320.10;;;219.63;;
9807;SDS011;4943;52.550;13.462;2023-07-31T02:24:53;327.00;;;234.30;;
9807;SDS011;4943;52.550;13.462;2023-07-31T02:27:21;325.70;;;236.07;;
9807;SDS011;4943;52.550;13.462;2023-07-31T02:29:53;319.73;;;223.63;;
9807;SDS011;4943;52.550;13.462;2023-07-31T02:32:21;325.00;;;237.10;;
9807;SDS011;4943;52.550;13.462;2023-07-31T02:34:51;326.83;;;236.37;;
9807;SDS011;4943;52.550;13.462;2023-07-31T02:37:19;325.53;;;237.17;;
9807;SDS011;4943;52.550;13.462;2023-07-31T02:39:47;332.13;;;250.30;;
9807;SDS011;4943;52.550;13.462;2023-07-31T02:42:15;326.20;;;229.03;;
9807;SDS011;4943;52.550;13.462;2023-07-31T02:44:43;324.40;;;236.67;;
9807;SDS011;4943;52.550;13.462;2023-07-31T02:47:11;326.27;;;236.60;;
9807;SDS011;4943;52.550;13.462;2023-07-31T02:49:39;321.50;;;224.03;;
9807;SDS011;4943;52.550;13.462;2023-07-31T02:52:09;327.07;;;239.77;;
9807;SDS011;4943;52.550;13.462;2023-07-31T02:54:37;327.63;;;228.40;;
9807;SDS011;4943;52.550;13.462;2023-07-31T02:57:05;328.17;;;231.50;;
9807;SDS011;4943;52.550;13.462;2023-07-31T02:59:33;322.07;;;224.20;;
9807;SDS011;4943;52.550;13.462;2023-07-31T03:02:01;327.53;;;242.23;;
9807;SDS011;4943;52.550;13.462;2023-07-31T03:04:29;325.07;;;229.40;;
9807;SDS011;4943;52.550;13.462;2023-07-31T03:06:57;323.80;;;234.23;;
9807;SDS011;4943;52.550;13.462;2023-07-31T03:09:27;321.93;;;231.13;;
9807;SDS011;4943;52.550;13.462;2023-07-31T03:11:55;322.43;;;226.80;;
9807;SDS011;4943;52.550;13.462;2023-07-31T03:14:23;319.70;;;219.60;;
9807;SDS011;4943;52.550;13.462;2023-07-31T03:16:53;329.50;;;232.53;;
9807;SDS011;4943;52.550;13.462;2023-07-31T03:19:21;323.17;;;219.30;;
9807;SDS011;4943;52.550;13.462;2023-07-31T03:21:49;323.50;;;232.50;;
9807;SDS011;4943;52.550;13.462;2023-07-31T03:24:17;322.73;;;232.07;;
9807;SDS011;4943;52.550;13.462;2023-07-31T03:26:46;321.00;;;226.73;;
9807;SDS011;4943;52.550;13.462;2023-07-31T03:29:14;323.47;;;225.73;;
9807;SDS011;4943;52.550;13.462;2023-07-31T03:31:43;323.50;;;233.43;;
9807;SDS011;4943;52.550;13.462;2023-07-31T03:34:11;329.10;;;238.23;;
9807;SDS011;4943;52.550;13.462;2023-07-31T03:36:39;325.57;;;233.07;;
9807;SDS011;4943;52.550;13.462;2023-07-31T03:39:07;330.77;;;241.93;;
9807;SDS011;4943;52.550;13.462;2023-07-31T03:41:35;324.90;;;223.67;;
9807;SDS011;4943;52.550;13.462;2023-07-31T03:44:05;323.57;;;227.77;;
9807;SDS011;4943;52.550;13.462;2023-07-31T03:46:33;324.40;;;227.33;;
9807;SDS011;4943;52.550;13.462;2023-07-31T03:49:03;327.20;;;239.50;;
9807;SDS011;4943;52.550;13.462;2023-07-31T03:51:31;323.60;;;223.77;;
9807;SDS011;4943;52.550;13.462;2023-07-31T03:53:59;322.40;;;223.63;;
9807;SDS011;4943;52.550;13.462;2023-07-31T03:56:27;324.13;;;236.20;;
9807;SDS011;4943;52.550;13.462;2023-07-31T03:58:55;332.50;;;244.20;;
9807;SDS011;4943;52.550;13.462;2023-07-31T04:01:24;325.17;;;239.13;;
9807;SDS011;4943;52.550;13.462;2023-07-31T04:03:53;324.50;;;230.00;;
9807;SDS011;4943;52.550;13.462;2023-07-31T04:06:21;325.60;;;235.17;;
9807;SDS011;4943;52.550;13.462;2023-07-31T04:08:50;333.87;;;243.10;;
9807;SDS011;4943;52.550;13.462;2023-07-31T04:11:18;324.57;;;237.70;;
9807;SDS011;4943;52.550;13.462;2023-07-31T04:13:46;322.57;;;225.67;;
9807;SDS011;4943;52.550;13.462;2023-07-31T04:16:14;327.80;;;238.83;;
9807;SDS011;4943;52.550;13.462;2023-07-31T04:18:43;320.80;;;218.27;;
9807;SDS011;4943;52.550;13.462;2023-07-31T04:21:11;322.53;;;225.00;;
9807;SDS011;4943;52.550;13.462;2023-07-31T04:23:39;322.60;;;222.10;;
9807;SDS011;4943;52.550;13.462;2023-07-31T04:26:07;326.73;;;238.17;;
9807;SDS011;4943;52.550;13.462;2023-07-31T04:28:35;325.43;;;235.00;;
9807;SDS011;4943;52.550;13.462;2023-07-31T04:31:03;325.93;;;234.03;;
9807;SDS011;4943;52.550;13.462;2023-07-31T04:33:31;327.37;;;241.90;;
9807;SDS011;4943;52.550;13.462;2023-07-31T04:36:01;327.63;;;230.83;;
9807;SDS011;4943;52.550;13.462;2023-07-31T04:38:29;322.17;;;226.07;;
9807;SDS011;4943;52.550;13.462;2023-07-31T04:40:57;333.33;;;248.20;;
9807;SDS011;4943;52.550;13.462;2023-07-31T04:43:25;331.00;;;247.57;;
9807;SDS011;4943;52.550;13.462;2023-07-31T04:45:53;322.23;;;232.33;;
9807;SDS011;4943;52.550;13.462;2023-07-31T04:48:21;330.60;;;255.57;;
9807;SDS011;4943;52.550;13.462;2023-07-31T04:50:51;324.00;;;237.13;;
9807;SDS011;4943;52.550;13.462;2023-07-31T04:53:20;330.80;;;240.87;;
9807;SDS011;4943;52.550;13.462;2023-07-31T04:55:48;326.23;;;243.07;;
9807;SDS011;4943;52.550;13.462;2023-07-31T04:58:16;322.97;;;233.47;;
9807;SDS011;4943;52.550;13.462;2023-07-31T05:00:44;326.90;;;235.17;;
9807;SDS011;4943;52.550;13.462;2023-07-31T05:03:12;331.17;;;258.13;;
9807;SDS011;4943;52.550;13.462;2023-07-31T05:05:40;325.07;;;241.67;;
9807;SDS011;4943;52.550;13.462;2023-07-31T05:08:08;326.83;;;248.80;;
9807;SDS011;4943;52.550;13.462;2023-07-31T05:10:38;325.70;;;243.80;;
9807;SDS011;4943;52.550;13.462;2023-07-31T05:13:06;327.10;;;245.03;;
9807;SDS011;4943;52.550;13.462;2023-07-31T05:15:34;332.23;;;251.03;;
9807;SDS011;4943;52.550;13.462;2023-07-31T05:18:02;332.27;;;255.63;;
9807;SDS011;4943;52.550;13.462;2023-07-31T05:20:30;327.10;;;251.70;;
9807;SDS011;4943;52.550;13.462;2023-07-31T05:22:58;331.77;;;251.77;;
9807;SDS011;4943;52.550;13.462;2023-07-31T05:25:26;341.73;;;283.67;;
9807;SDS011;4943;52.550;13.462;2023-07-31T05:27:56;332.80;;;266.63;;
9807;SDS011;4943;52.550;13.462;2023-07-31T05:30:24;334.20;;;268.73;;
9807;SDS011;4943;52.550;13.462;2023-07-31T05:32:52;332.03;;;258.77;;
9807;SDS011;4943;52.550;13.462;2023-07-31T05:35:20;339.70;;;281.77;;
9807;SDS011;4943;52.550;13.462;2023-07-31T05:37:48;341.27;;;278.53;;
9807;SDS011;4943;52.550;13.462;2023-07-31T05:40:16;341.73;;;277.13;;
9807;SDS011;4943;52.550;13.462;2023-07-31T05:42:44;345.57;;;288.53;;
9807;SDS011;4943;52.550;13.462;2023-07-31T05:45:14;335.93;;;267.63;;
9807;SDS011;4943;52.550;13.462;2023-07-31T05:47:42;342.33;;;278.07;;
9807;SDS011;4943;52.550;13.462;2023-07-31T05:50:10;341.67;;;286.10;;
9807;SDS011;4943;52.550;13.462;2023-07-31T05:52:39;337.37;;;282.87;;
9807;SDS011;4943;52.550;13.462;2023-07-31T05:55:08;338.40;;;280.67;;
9807;SDS011;4943;52.550;13.462;2023-07-31T05:57:36;346.53;;;307.47;;
9807;SDS011;4943;52.550;13.462;2023-07-31T06:00:04;344.93;;;298.33;;
9807;SDS011;4943;52.550;13.462;2023-07-31T06:02:35;342.27;;;292.47;;
9807;SDS011;4943;52.550;13.462;2023-07-31T06:05:03;341.20;;;290.80;;
9807;SDS011;4943;52.550;13.462;2023-07-31T06:07:33;337.47;;;282.50;;
9807;SDS011;4943;52.550;13.462;2023-07-31T06:10:01;341.00;;;290.57;;
9807;SDS011;4943;52.550;13.462;2023-07-31T06:12:32;339.23;;;284.97;;
9807;SDS011;4943;52.550;13.462;2023-07-31T06:15:00;336.53;;;279.20;;
9807;SDS011;4943;52.550;13.462;2023-07-31T06:17:29;339.77;;;286.20;;
9807;SDS011;4943;52.550;13.462;2023-07-31T06:19:58;341.93;;;293.43;;
9807;SDS011;4943;52.550;13.462;2023-07-31T06:22:28;338.30;;;292.57;;
9807;SDS011;4943;52.550;13.462;2023-07-31T06:24:56;340.20;;;290.63;;
9807;SDS011;4943;52.550;13.462;2023-07-31T06:27:24;343.63;;;301.83;;
9807;SDS011;4943;52.550;13.462;2023-07-31T06:29:52;339.70;;;281.70;;
9807;SDS011;4943;52.550;13.462;2023-07-31T06:32:20;343.37;;;299.97;;
9807;SDS011;4943;52.550;13.462;2023-07-31T06:34:49;338.17;;;284.97;;
9807;SDS011;4943;52.550;13.462;2023-07-31T06:37:18;342.77;;;295.13;;
9807;SDS011;4943;52.550;13.462;2023-07-31T06:39:46;337.20;;;280.67;;
9807;SDS011;4943;52.550;13.462;2023-07-31T06:42:14;341.43;;;291.43;;
9807;SDS011;4943;52.550;13.462;2023-07-31T06:44:42;342.23;;;299.40;;
9807;SDS011;4943;52.550;13.462;2023-07-31T06:47:11;340.67;;;290.23;;
9807;SDS011;4943;52.550;13.462;2023-07-31T06:49:39;343.60;;;304.10;;
9807;SDS011;4943;52.550;13.462;2023-07-31T06:52:07;343.77;;;297.83;;
9807;SDS011;4943;52.550;13.462;2023-07-31T06:54:37;349.90;;;311.40;;
9807;SDS011;4943;52.550;13.462;2023-07-31T06:57:05;337.90;;;285.60;;
9807;SDS011;4943;52.550;13.462;2023-07-31T06:59:34;338.13;;;296.97;;
9807;SDS011;4943;52.550;13.462;2023-07-31T07:02:02;338.07;;;288.00;;
9807;SDS011;4943;52.550;13.462;2023-07-31T07:04:32;344.50;;;305.17;;
9807;SDS011;4943;52.550;13.462;2023-07-31T07:07:00;353.90;;;314.80;;
9807;SDS011;4943;52.550;13.462;2023-07-31T07:09:28;346.20;;;307.27;;
9807;SDS011;4943;52.550;13.462;2023-07-31T07:11:58;352.77;;;313.70;;
9807;SDS011;4943;52.550;13.462;2023-07-31T07:14:26;338.13;;;290.50;;
9807;SDS011;4943;52.550;13.462;2023-07-31T07:16:54;342.90;;;302.23;;
9807;SDS011;4943;52.550;13.462;2023-07-31T07:19:22;341.53;;;292.87;;
9807;SDS011;4943;52.550;13.462;2023-07-31T07:21:50;352.37;;;313.73;;
9807;SDS011;4943;52.550;13.462;2023-07-31T07:24:18;334.67;;;277.90;;
9807;SDS011;4943;52.550;13.462;2023-07-31T07:26:46;334.97;;;280.03;;
9807;SDS011;4943;52.550;13.462;2023-07-31T07:29:15;340.60;;;292.47;;
9807;SDS011;4943;52.550;13.462;2023-07-31T07:31:43;336.60;;;283.23;;
9807;SDS011;4943;52.550;13.462;2023-07-31T07:34:11;340.87;;;291.53;;
9807;SDS011;4943;52.550;13.462;2023-07-31T07:36:40;337.87;;;290.47;;
9807;SDS011;4943;52.550;13.462;2023-07-31T07:39:08;350.67;;;312.27;;
9807;SDS011;4943;52.550;13.462;2023-07-31T07:41:37;356.17;;;317.17;;
9807;SDS011;4943;52.550;13.462;2023-07-31T07:44:05;358.37;;;319.73;;
9807;SDS011;4943;52.550;13.462;2023-07-31T07:46:36;341.13;;;300.53;;
9807;SDS011;4943;52.550;13.462;2023-07-31T07:49:05;343.67;;;303.83;;
9807;SDS011;4943;52.550;13.462;2023-07-31T07:51:33;377.40;;;338.00;;
9807;SDS011;4943;52.550;13.462;2023-07-31T07:54:01;374.27;;;335.17;;
9807;SDS011;4943;52.550;13.462;2023-07-31T07:56:29;380.47;;;341.00;;
9807;SDS011;4943;52.550;13.462;2023-07-31T07:58:57;387.57;;;347.57;;
9807;SDS011;4943;52.550;13.462;2023-07-31T08:01:26;405.93;;;365.20;;
9807;SDS011;4943;52.550;13.462;2023-07-31T08:03:55;375.87;;;336.47;;
9807;SDS011;4943;52.550;13.462;2023-07-31T08:06:23;382.00;;;342.43;;
9807;SDS011;4943;52.550;13.462;2023-07-31T08:08:51;373.20;;;334.23;;
9807;SDS011;4943;52.550;13.462;2023-07-31T08:11:19;368.07;;;329.27;;
9807;SDS011;4943;52.550;13.462;2023-07-31T08:13:49;394.10;;;354.23;;
9807;SDS011;4943;52.550;13.462;2023-07-31T08:16:17;393.47;;;353.53;;
9807;SDS011;4943;52.550;13.462;2023-07-31T08:18:45;381.50;;;342.07;;
9807;SDS011;4943;52.550;13.462;2023-07-31T08:21:16;361.47;;;322.37;;
9807;SDS011;4943;52.550;13.462;2023-07-31T08:23:44;390.00;;;350.30;;
9807;SDS011;4943;52.550;13.462;2023-07-31T08:26:14;373.17;;;334.27;;
9807;SDS011;4943;52.550;13.462;2023-07-31T08:28:43;367.60;;;328.67;;
9807;SDS011;4943;52.550;13.462;2023-07-31T08:31:11;370.37;;;331.47;;
9807;SDS011;4943;52.550;13.462;2023-07-31T08:33:39;381.40;;;341.60;;
9807;SDS011;4943;52.550;13.462;2023-07-31T08:36:07;368.20;;;329.10;;
9807;SDS011;4943;52.550;13.462;2023-07-31T08:38:37;356.43;;;317.83;;
9807;SDS011;4943;52.550;13.462;2023-07-31T08:41:05;367.50;;;328.53;;
9807;SDS011;4943;52.550;13.462;2023-07-31T08:43:33;349.10;;;310.43;;
9807;SDS011;4943;52.550;13.462;2023-07-31T08:46:03;368.53;;;328.13;;
9807;SDS011;4943;52.550;13.462;2023-07-31T08:48:32;365.47;;;326.33;;
9807;SDS011;4943;52.550;13.462;2023-07-31T08:51:00;347.77;;;309.53;;
9807;SDS011;4943;52.550;13.462;2023-07-31T08:53:28;340.77;;;298.03;;
9807;SDS011;4943;52.550;13.462;2023-07-31T08:55:58;354.70;;;316.30;;
9807;SDS011;4943;52.550;13.462;2023-07-31T08:58:27;357.63;;;319.17;;
9807;SDS011;4943;52.550;13.462;2023-07-31T09:00:58;386.53;;;346.80;;
9807;SDS011;4943;52.550;13.462;2023-07-31T09:03:28;379.63;;;340.43;;
9807;SDS011;4943;52.550;13.462;2023-07-31T09:05:57;394.87;;;355.17;;
9807;SDS011;4943;52.550;13.462;2023-07-31T09:08:26;415.20;;;374.73;;
9807;SDS011;4943;52.550;13.462;2023-07-31T09:11:00;400.70;;;360.60;;
9807;SDS011;4943;52.550;13.462;2023-07-31T09:13:30;395.90;;;356.10;;
9807;SDS011;4943;52.550;13.462;2023-07-31T09:16:00;416.37;;;376.07;;
9807;SDS011;4943;52.550;13.462;2023-07-31T09:18:28;410.90;;;370.70;;
9807;SDS011;4943;52.550;13.462;2023-07-31T09:21:03;388.40;;;349.00;;
9807;SDS011;4943;52.550;13.462;2023-07-31T09:23:41;416.77;;;376.27;;
9807;SDS011;4943;52.550;13.462;2023-07-31T09:26:10;407.07;;;366.67;;
9807;SDS011;4943;52.550;13.462;2023-07-31T09:28:39;412.10;;;371.60;;
9807;SDS011;4943;52.550;13.462;2023-07-31T09:31:07;434.63;;;393.43;;
9807;SDS011;4943;52.550;13.462;2023-07-31T09:33:35;450.93;;;409.33;;
9807;SDS011;4943;52.550;13.462;2023-07-31T09:36:22;427.17;;;386.57;;
9807;SDS011;4943;52.550;13.462;2023-07-31T09:38:50;433.17;;;392.40;;
9807;SDS011;4943;52.550;13.462;2023-07-31T09:41:20;429.10;;;388.37;;
9807;SDS011;4943;52.550;13.462;2023-07-31T09:43:52;404.93;;;364.93;;
9807;SDS011;4943;52.550;13.462;2023-07-31T09:46:21;408.50;;;368.43;;
9807;SDS011;4943;52.550;13.462;2023-07-31T09:48:49;411.57;;;371.20;;
9807;SDS011;4943;52.550;13.462;2023-07-31T09:51:17;386.43;;;346.80;;
9807;SDS011;4943;52.550;13.462;2023-07-31T09:53:53;403.23;;;363.17;;
9807;SDS011;4943;52.550;13.462;2023-07-31T09:56:22;383.77;;;344.50;;
9807;SDS011;4943;52.550;13.462;2023-07-31T09:58:51;381.20;;;342.07;;
9807;SDS011;4943;52.550;13.462;2023-07-31T10:01:20;410.83;;;370.53;;
9807;SDS011;4943;52.550;13.462;2023-07-31T10:03:48;391.60;;;352.00;;
9807;SDS011;4943;52.550;13.462;2023-07-31T10:06:17;419.43;;;378.63;;
9807;SDS011;4943;52.550;13.462;2023-07-31T10:08:46;392.53;;;352.53;;
9807;SDS011;4943;52.550;13.462;2023-07-31T10:11:19;409.73;;;369.40;;
9807;SDS011;4943;52.550;13.462;2023-07-31T10:13:50;419.83;;;379.47;;
9807;SDS011;4943;52.550;13.462;2023-07-31T10:16:19;392.03;;;352.57;;
9807;SDS011;4943;52.550;13.462;2023-07-31T10:18:49;412.40;;;372.10;;
9807;SDS011;4943;52.550;13.462;2023-07-31T10:21:18;418.20;;;377.73;;
9807;SDS011;4943;52.550;13.462;2023-07-31T10:23:46;426.67;;;385.97;;
9807;SDS011;4943;52.550;13.462;2023-07-31T10:26:16;440.27;;;399.13;;
9807;SDS011;4943;52.550;13.462;2023-07-31T10:28:46;432.03;;;391.07;;
9807;SDS011;4943;52.550;13.462;2023-07-31T10:31:17;428.93;;;388.00;;
9807;SDS011;4943;52.550;13.462;2023-07-31T10:33:46;421.07;;;380.53;;
9807;SDS011;4943;52.550;13.462;2023-07-31T10:36:14;415.57;;;374.93;;
9807;SDS011;4943;52.550;13.462;2023-07-31T10:38:44;397.27;;;357.43;;
9807;SDS011;4943;52.550;13.462;2023-07-31T10:41:12;405.63;;;365.63;;
9807;SDS011;4943;52.550;13.462;2023-07-31T10:43:41;409.20;;;368.90;;
9807;SDS011;4943;52.550;13.462;2023-07-31T10:46:09;413.77;;;373.03;;
9807;SDS011;4943;52.550;13.462;2023-07-31T10:48:40;438.67;;;397.40;;
9807;SDS011;4943;52.550;13.462;2023-07-31T10:51:09;406.50;;;366.17;;
9807;SDS011;4943;52.550;13.462;2023-07-31T10:53:39;407.63;;;367.43;;
9807;SDS011;4943;52.550;13.462;2023-07-31T10:56:08;454.43;;;412.73;;
9807;SDS011;4943;52.550;13.462;2023-07-31T10:58:39;450.27;;;408.73;;
9807;SDS011;4943;52.550;13.462;2023-07-31T11:01:07;467.87;;;425.10;;
9807;SDS011;4943;52.550;13.462;2023-07-31T11:03:43;492.67;;;449.57;;
9807;SDS011;4943;52.550;13.462;2023-07-31T11:06:15;489.77;;;446.83;;
9807;SDS011;4943;52.550;13.462;2023-07-31T11:08:45;499.53;;;456.17;;
9807;SDS011;4943;52.550;13.462;2023-07-31T11:11:15;521.60;;;477.93;;
9807;SDS011;4943;52.550;13.462;2023-07-31T11:13:45;504.53;;;461.03;;
9807;SDS011;4943;52.550;13.462;2023-07-31T11:16:16;525.17;;;481.27;;
9807;SDS011;4943;52.550;13.462;2023-07-31T11:18:46;518.67;;;474.90;;
9807;SDS011;4943;52.550;13.462;2023-07-31T11:21:17;510.33;;;466.83;;
9807;SDS011;4943;52.550;13.462;2023-07-31T11:23:46;524.43;;;480.53;;
9807;SDS011;4943;52.550;13.462;2023-07-31T11:26:15;500.20;;;456.87;;
9807;SDS011;4943;52.550;13.462;2023-07-31T11:28:46;526.23;;;482.40;;
9807;SDS011;4943;52.550;13.462;2023-07-31T11:31:14;521.17;;;477.13;;
9807;SDS011;4943;52.550;13.462;2023-07-31T11:33:43;497.00;;;453.57;;
9807;SDS011;4943;52.550;13.462;2023-07-31T11:36:15;513.33;;;469.67;;
9807;SDS011;4943;52.550;13.462;2023-07-31T11:38:44;535.87;;;491.50;;
9807;SDS011;4943;52.550;13.462;2023-07-31T11:41:13;516.53;;;472.93;;
9807;SDS011;4943;52.550;13.462;2023-07-31T11:43:42;509.00;;;465.63;;
9807;SDS011;4943;52.550;13.462;2023-07-31T11:46:10;497.63;;;454.47;;
9807;SDS011;4943;52.550;13.462;2023-07-31T11:48:39;507.07;;;463.57;;
9807;SDS011;4943;52.550;13.462;2023-07-31T11:51:08;502.57;;;457.43;;
9807;SDS011;4943;52.550;13.462;2023-07-31T11:53:40;488.10;;;445.00;;
9807;SDS011;4943;52.550;13.462;2023-07-31T11:56:11;496.13;;;453.17;;
9807;SDS011;4943;52.550;13.462;2023-07-31T11:58:41;498.27;;;455.10;;
9807;SDS011;4943;52.550;13.462;2023-07-31T12:01:10;476.03;;;433.87;;
9807;SDS011;4943;52.550;13.462;2023-07-31T12:03:42;474.87;;;432.40;;
9807;SDS011;4943;52.550;13.462;2023-07-31T12:06:10;471.17;;;429.00;;
9807;SDS011;4943;52.550;13.462;2023-07-31T12:08:39;497.50;;;454.60;;
9807;SDS011;4943;52.550;13.462;2023-07-31T12:11:08;465.73;;;423.50;;
9807;SDS011;4943;52.550;13.462;2023-07-31T12:13:37;469.97;;;427.83;;
9807;SDS011;4943;52.550;13.462;2023-07-31T12:16:05;482.60;;;440.10;;
9807;SDS011;4943;52.550;13.462;2023-07-31T12:18:33;491.93;;;449.07;;
9807;SDS011;4943;52.550;13.462;2023-07-31T12:21:03;477.83;;;435.17;;
9807;SDS011;4943;52.550;13.462;2023-07-31T12:23:33;484.83;;;442.37;;
9807;SDS011;4943;52.550;13.462;2023-07-31T12:26:03;493.73;;;450.30;;
9807;SDS011;4943;52.550;13.462;2023-07-31T12:28:36;474.80;;;432.27;;
9807;SDS011;4943;52.550;13.462;2023-07-31T12:31:08;492.13;;;449.23;;
9807;SDS011;4943;52.550;13.462;2023-07-31T12:33:37;501.40;;;458.23;;
9807;SDS011;4943;52.550;13.462;2023-07-31T12:36:08;494.97;;;451.83;;
9807;SDS011;4943;52.550;13.462;2023-07-31T12:38:36;503.53;;;460.20;;
9807;SDS011;4943;52.550;13.462;2023-07-31T12:41:06;499.60;;;456.60;;
9807;SDS011;4943;52.550;13.462;2023-07-31T12:43:36;510.07;;;466.83;;
9807;SDS011;4943;52.550;13.462;2023-07-31T12:46:06;510.07;;;466.67;;
9807;SDS011;4943;52.550;13.462;2023-07-31T12:48:35;507.03;;;463.77;;
9807;SDS011;4943;52.550;13.462;2023-07-31T12:51:03;514.80;;;470.97;;
9807;SDS011;4943;52.550;13.462;2023-07-31T12:53:33;527.37;;;483.07;;
9807;SDS011;4943;52.550;13.462;2023-07-31T12:56:01;552.37;;;507.63;;
9807;SDS011;4943;52.550;13.462;2023-07-31T12:58:30;567.30;;;522.00;;
9807;SDS011;4943;52.550;13.462;2023-07-31T13:00:58;547.87;;;503.20;;
9807;SDS011;4943;52.550;13.462;2023-07-31T13:03:28;533.37;;;489.57;;
9807;SDS011;4943;52.550;13.462;2023-07-31T13:05:56;531.37;;;487.40;;
9807;SDS011;4943;52.550;13.462;2023-07-31T13:08:25;521.77;;;478.27;;
9807;SDS011;4943;52.550;13.462;2023-07-31T13:10:53;529.70;;;485.70;;
9807;SDS011;4943;52.550;13.462;2023-07-31T13:13:21;527.40;;;483.53;;
9807;SDS011;4943;52.550;13.462;2023-07-31T13:15:50;502.20;;;458.90;;
9807;SDS011;4943;52.550;13.462;2023-07-31T13:18:18;508.87;;;465.47;;
9807;SDS011;4943;52.550;13.462;2023-07-31T13:20:47;518.50;;;474.90;;
9807;SDS011;4943;52.550;13.462;2023-07-31T13:23:15;490.57;;;447.73;;
9807;SDS011;4943;52.550;13.462;2023-07-31T13:25:43;494.77;;;451.80;;
9807;SDS011;4943;52.550;13.462;2023-07-31T13:28:11;481.50;;;438.70;;
9807;SDS011;4943;52.550;13.462;2023-07-31T13:30:39;507.50;;;463.93;;
9807;SDS011;4943;52.550;13.462;2023-07-31T13:33:08;496.33;;;453.40;;
9807;SDS011;4943;52.550;13.462;2023-07-31T13:35:56;483.80;;;441.20;;
9807;SDS011;4943;52.550;13.462;2023-07-31T13:38:24;524.53;;;480.63;;
9807;SDS011;4943;52.550;13.462;2023-07-31T13:40:52;520.93;;;477.53;;
9807;SDS011;4943;52.550;13.462;2023-07-31T13:43:20;508.60;;;465.20;;
9807;SDS011;4943;52.550;13.462;2023-07-31T13:45:48;530.53;;;486.63;;
9807;SDS011;4943;52.550;13.462;2023-07-31T13:48:18;515.83;;;472.00;;
9807;SDS011;4943;52.550;13.462;2023-07-31T13:50:46;510.80;;;467.63;;
9807;SDS011;4943;52.550;13.462;2023-07-31T13:53:14;528.73;;;484.70;;
9807;SDS011;4943;52.550;13.462;2023-07-31T13:55:42;504.17;;;461.13;;
9807;SDS011;4943;52.550;13.462;2023-07-31T13:58:12;506.27;;;463.07;;
9807;SDS011;4943;52.550;13.462;2023-07-31T14:00:40;524.47;;;480.87;;
9807;SDS011;4943;52.550;13.462;2023-07-31T14:03:08;539.23;;;495.03;;
9807;SDS011;4943;52.550;13.462;2023-07-31T14:05:38;529.43;;;485.67;;
9807;SDS011;4943;52.550;13.462;2023-07-31T14:08:06;548.60;;;504.53;;
9807;SDS011;4943;52.550;13.462;2023-07-31T14:10:34;561.73;;;517.10;;
9807;SDS011;4943;52.550;13.462;2023-07-31T14:13:02;564.07;;;519.47;;
9807;SDS011;4943;52.550;13.462;2023-07-31T14:15:30;558.33;;;513.17;;
9807;SDS011;4943;52.550;13.462;2023-07-31T14:18:02;533.97;;;490.20;;